Time;durP1;ratioP1;P1;durP2;ratioP2;P2;SDS_P1;SDS_P2;PMS_P1;PMS_P2;Temp;Humidity;BMP_temperature;BMP_pressure;BME280_temperature;BME280_humidity;BME280_pressure;Samples;Min_cycle;Max_cycle;Signal;HPM_P1;HPM_P2
2023/10/24 00:31:50;;;;;;;20.70;13.50;;;;;;;9.96;100.00;98905.09;106926;1295;544959;-44
2023/10/24 00:34:16;;;;;;;19.80;13.00;;;;;;;9.92;100.00;98901.67;107113;1305;24382;-46
2023/10/24 00:36:43;;;;;;;26.10;13.70;;;;;;;9.89;100.00;98900.57;107155;1295;22615;-49
2023/10/24 00:39:08;;;;;;;28.20;13.90;;;;;;;9.86;100.00;98901.99;107151;1295;22568;-45
2023/10/24 00:41:34;;;;;;;25.80;14.00;;;;;;;9.83;100.00;98897.64;107169;1292;22634;-46
2023/10/24 00:43:59;;;;;;;28.90;14.30;;;;;;;9.79;100.00;98899.75;107174;1287;22577;-44
2023/10/24 00:46:26;;;;;;;22.40;14.70;;;;;;;9.75;100.00;98897.73;107262;1296;172644;-45
2023/10/24 00:48:52;;;;;;;24.10;14.50;;;;;;;9.71;100.00;98900.64;107393;1303;22552;-44
2023/10/24 00:51:18;;;;;;;28.50;14.80;;;;;;;9.67;100.00;98903.44;107421;1284;22616;-46
2023/10/24 00:53:43;;;;;;;26.60;14.90;;;;;;;9.64;100.00;98905.05;107427;1302;22678;-46
2023/10/24 00:56:10;;;;;;;25.70;14.70;;;;;;;9.60;100.00;98904.72;107408;1284;22555;-47
2023/10/24 00:58:37;;;;;;;26.50;16.00;;;;;;;9.56;100.00;98912.30;107400;1303;24264;-44
2023/10/24 01:01:08;;;;;;;30.80;15.70;;;;;;;9.52;100.00;98911.11;107426;1302;22581;-47
2023/10/24 01:03:33;;;;;;;28.40;14.70;;;;;;;9.47;100.00;98901.96;107486;1295;22548;-44
2023/10/24 01:06:00;;;;;;;26.90;14.80;;;;;;;9.44;100.00;98901.96;107468;1303;22715;-45
2023/10/24 01:08:25;;;;;;;25.00;15.20;;;;;;;9.40;100.00;98906.55;107441;1293;22592;-45
2023/10/24 01:10:50;;;;;;;25.60;15.00;;;;;;;9.37;100.00;98909.52;107435;1285;22624;-41
2023/10/24 01:13:16;;;;;;;29.30;15.40;;;;;;;9.36;100.00;98907.15;107409;1302;22566;-43
2023/10/24 01:15:42;;;;;;;23.30;15.20;;;;;;;9.35;100.00;98900.70;107489;1284;22558;-43
2023/10/24 01:18:07;;;;;;;24.30;15.50;;;;;;;9.34;100.00;98899.37;107410;1284;23133;-44
2023/10/24 01:20:32;;;;;;;29.60;15.50;;;;;;;9.32;100.00;98900.36;107427;1285;22595;-42
2023/10/24 01:22:57;;;;;;;26.40;14.70;;;;;;;9.30;100.00;98897.66;107423;1284;22623;-44
2023/10/24 01:25:24;;;;;;;29.00;15.20;;;;;;;9.28;100.00;98895.15;107398;1302;22570;-43
2023/10/24 01:27:53;;;;;;;25.10;15.60;;;;;;;9.28;100.00;98895.52;107422;1285;22589;-46
2023/10/24 01:30:19;;;;;;;34.10;16.20;;;;;;;9.26;100.00;98898.25;107419;1303;22568;-43
2023/10/24 01:32:44;;;;;;;27.60;16.20;;;;;;;9.27;100.00;98895.59;107447;1285;24414;-44
2023/10/24 01:35:10;;;;;;;27.00;15.40;;;;;;;9.29;100.00;98893.91;107429;1295;22711;-45
2023/10/24 01:37:35;;;;;;;25.60;14.70;;;;;;;9.29;100.00;98892.13;107391;1302;22716;-45
2023/10/24 01:40:05;;;;;;;26.90;15.30;;;;;;;9.30;100.00;98891.75;107421;1285;22647;-41
2023/10/24 01:42:30;;;;;;;25.50;16.10;;;;;;;9.28;100.00;98892.04;107427;1297;22554;-44
2023/10/24 01:44:55;;;;;;;29.50;15.90;;;;;;;9.28;100.00;98890.46;107397;1284;22572;-43
2023/10/24 01:47:21;;;;;;;27.00;16.40;;;;;;;9.26;100.00;98887.08;107386;1285;22559;-43
2023/10/24 01:49:46;;;;;;;25.80;15.80;;;;;;;9.22;100.00;98886.01;107355;1285;22559;-46
2023/10/24 01:52:12;;;;;;;24.70;15.10;;;;;;;9.20;100.00;98880.89;107457;1289;24793;-45
2023/10/24 01:54:37;;;;;;;26.50;16.30;;;;;;;9.18;100.00;98880.67;107440;1294;22580;-43
2023/10/24 01:57:02;;;;;;;30.90;16.60;;;;;;;9.16;100.00;98874.84;107458;1303;25390;-44
2023/10/24 01:59:27;;;;;;;29.20;16.20;;;;;;;9.16;100.00;98874.16;107480;1303;22570;-43
2023/10/24 02:01:53;;;;;;;24.50;15.00;;;;;;;9.17;100.00;98875.67;107472;1302;22930;-46
2023/10/24 02:04:18;;;;;;;27.80;16.50;;;;;;;9.17;100.00;98874.79;107443;1288;22553;-44
2023/10/24 02:06:43;;;;;;;27.70;15.90;;;;;;;9.16;100.00;98873.07;107454;1303;22590;-47
2023/10/24 02:09:09;;;;;;;29.30;16.40;;;;;;;9.15;100.00;98867.40;107452;1302;22627;-42
2023/10/24 02:11:34;;;;;;;26.70;15.90;;;;;;;9.14;100.00;98864.32;107487;1292;22568;-42
2023/10/24 02:13:59;;;;;;;22.90;15.80;;;;;;;9.14;100.00;98858.16;107444;1285;22556;-44
2023/10/24 02:16:24;;;;;;;29.10;17.70;;;;;;;9.14;100.00;98853.63;107458;1289;22552;-46
2023/10/24 02:18:50;;;;;;;33.90;18.40;;;;;;;9.15;100.00;98855.30;107436;1286;25463;-45
2023/10/24 02:21:15;;;;;;;34.70;17.60;;;;;;;9.16;100.00;98855.41;107486;1302;24340;-46
2023/10/24 02:23:40;;;;;;;30.40;16.60;;;;;;;9.17;100.00;98849.06;107463;1283;22560;-43
2023/10/24 02:26:13;;;;;;;29.70;16.60;;;;;;;9.20;100.00;98844.54;107451;1303;23371;-46
2023/10/24 02:28:38;;;;;;;26.10;16.00;;;;;;;9.23;100.00;98835.47;107439;1284;22563;-44
2023/10/24 02:31:03;;;;;;;27.30;15.80;;;;;;;9.25;100.00;98825.88;107405;1289;22590;-43
2023/10/24 02:33:28;;;;;;;29.30;15.60;;;;;;;9.27;100.00;98825.79;107484;1303;23908;-46
2023/10/24 02:35:54;;;;;;;24.40;14.90;;;;;;;9.27;100.00;98821.58;107428;1289;24289;-44
2023/10/24 02:38:19;;;;;;;31.30;15.70;;;;;;;9.27;100.00;98821.95;107423;1285;22559;-44
2023/10/24 02:40:52;;;;;;;23.80;15.20;;;;;;;9.27;100.00;98821.80;107521;1280;96118;-58
2023/10/24 02:43:18;;;;;;;25.40;14.30;;;;;;;9.26;100.00;98826.05;107808;1283;22247;-49
2023/10/24 02:45:43;;;;;;;30.40;14.80;;;;;;;9.25;100.00;98823.44;107931;1306;22509;-48
2023/10/24 02:48:08;;;;;;;22.60;13.90;;;;;;;9.27;100.00;98823.70;107915;1288;22241;-50
2023/10/24 02:50:33;;;;;;;22.70;14.30;;;;;;;9.28;100.00;98823.44;107922;1307;23469;-48
2023/10/24 02:53:00;;;;;;;25.40;13.70;;;;;;;9.31;100.00;98821.89;107919;1300;23133;-49
2023/10/24 02:55:26;;;;;;;20.10;12.50;;;;;;;9.31;100.00;98823.27;107919;1306;22230;-48
2023/10/24 02:57:51;;;;;;;23.00;14.30;;;;;;;9.33;100.00;98823.36;107954;1289;22891;-47
2023/10/24 03:00:16;;;;;;;25.40;13.50;;;;;;;9.34;100.00;98821.70;107929;1307;22976;-48
2023/10/24 03:02:42;;;;;;;21.10;13.40;;;;;;;9.35;100.00;98829.19;107938;1301;22223;-49
2023/10/24 03:05:07;;;;;;;26.40;13.90;;;;;;;9.36;100.00;98831.73;107905;1307;22203;-49
2023/10/24 03:07:33;;;;;;;24.00;14.00;;;;;;;9.37;100.00;98832.74;107934;1307;22247;-49
2023/10/24 03:09:58;;;;;;;21.20;12.40;;;;;;;9.40;100.00;98836.95;107929;1288;22678;-48
2023/10/24 03:12:23;;;;;;;26.40;14.20;;;;;;;9.42;100.00;98836.28;107956;1288;22148;-49
2023/10/24 03:14:48;;;;;;;21.80;12.50;;;;;;;9.46;100.00;98834.16;107956;1288;22916;-48
2023/10/24 03:17:13;;;;;;;21.70;12.80;;;;;;;9.50;100.00;98831.14;107933;1288;23184;-47
2023/10/24 03:19:39;;;;;;;19.20;13.00;;;;;;;9.53;100.00;98834.40;107944;1291;22442;-47
2023/10/24 03:22:04;;;;;;;22.40;13.30;;;;;;;9.56;100.00;98833.67;107931;1291;23222;-47
2023/10/24 03:24:29;;;;;;;21.60;12.40;;;;;;;9.57;100.00;98834.17;107939;1288;22277;-48
2023/10/24 03:26:55;;;;;;;24.30;12.80;;;;;;;9.58;100.00;98832.91;107927;1288;22215;-47
2023/10/24 03:29:20;;;;;;;18.60;11.70;;;;;;;9.59;100.00;98834.56;107918;1285;22191;-47
2023/10/24 03:31:45;;;;;;;20.60;13.30;;;;;;;9.63;100.00;98831.92;107921;1288;22378;-47
2023/10/24 03:34:10;;;;;;;20.60;12.20;;;;;;;9.65;100.00;98825.15;107942;1286;22315;-48
2023/10/24 03:36:36;;;;;;;22.20;13.20;;;;;;;9.67;100.00;98825.55;107932;1304;22258;-49
2023/10/24 03:39:01;;;;;;;20.00;12.10;;;;;;;9.68;100.00;98821.46;107924;1307;23014;-49
2023/10/24 03:41:26;;;;;;;21.40;12.40;;;;;;;9.69;100.00;98814.27;107939;1287;23279;-49
2023/10/24 03:43:52;;;;;;;25.60;11.80;;;;;;;9.69;100.00;98807.42;107946;1307;22252;-49
2023/10/24 03:46:17;;;;;;;32.50;12.80;;;;;;;9.69;100.00;98813.22;107936;1289;22271;-48
2023/10/24 03:48:42;;;;;;;19.50;12.00;;;;;;;9.68;100.00;98812.77;107922;1288;22422;-49
2023/10/24 03:51:08;;;;;;;17.70;11.70;;;;;;;9.66;100.00;98813.05;107910;1288;22245;-53
2023/10/24 03:53:33;;;;;;;17.20;12.00;;;;;;;9.63;100.00;98810.90;107957;1288;22232;-48
2023/10/24 03:55:59;;;;;;;20.70;12.00;;;;;;;9.61;100.00;98800.87;107932;1288;23050;-50
2023/10/24 03:58:25;;;;;;;21.50;12.70;;;;;;;9.59;100.00;98799.92;107929;1293;22249;-48
2023/10/24 04:00:50;;;;;;;20.70;12.50;;;;;;;9.57;100.00;98802.00;107949;1288;22200;-48
2023/10/24 04:03:16;;;;;;;21.40;12.70;;;;;;;9.55;100.00;98804.20;107908;1285;22431;-49
2023/10/24 04:05:41;;;;;;;17.60;12.30;;;;;;;9.54;100.00;98801.27;107928;1307;23110;-48
2023/10/24 04:08:07;;;;;;;24.10;12.10;;;;;;;9.51;100.00;98793.05;107947;1288;22233;-50
2023/10/24 04:10:34;;;;;;;20.20;12.10;;;;;;;9.52;100.00;98795.11;107934;1288;22912;-50
2023/10/24 04:12:59;;;;;;;23.70;11.80;;;;;;;9.51;100.00;98797.79;107950;1288;22230;-47
2023/10/24 04:15:24;;;;;;;19.70;12.90;;;;;;;9.50;100.00;98801.17;107934;1307;22226;-47
2023/10/24 04:17:50;;;;;;;20.90;12.60;;;;;;;9.49;100.00;98800.35;107928;1304;22320;-50
2023/10/24 04:20:15;;;;;;;19.90;11.60;;;;;;;9.51;100.00;98804.81;107939;1307;22500;-46
2023/10/24 04:22:40;;;;;;;23.20;12.60;;;;;;;9.51;100.00;98806.71;107930;1285;22542;-47
2023/10/24 04:25:06;;;;;;;16.90;11.70;;;;;;;9.53;100.00;98810.62;107769;1291;22234;-49
2023/10/24 04:27:31;;;;;;;21.00;11.70;;;;;;;9.54;100.00;98811.44;107927;1307;22358;-48
2023/10/24 04:29:57;;;;;;;21.50;12.00;;;;;;;9.54;100.00;98816.16;107926;1288;22172;-50
2023/10/24 04:32:22;;;;;;;26.10;12.30;;;;;;;9.56;100.00;98822.02;107938;1287;22242;-48
2023/10/24 04:34:51;;;;;;;19.40;11.70;;;;;;;9.55;100.00;98821.85;107919;1291;22600;-47
2023/10/24 04:37:16;;;;;;;23.50;12.80;;;;;;;9.56;100.00;98818.98;107968;1288;22329;-46
2023/10/24 04:39:42;;;;;;;23.00;13.30;;;;;;;9.57;100.00;98821.59;107944;1288;22347;-45
2023/10/24 04:42:07;;;;;;;20.10;12.10;;;;;;;9.58;100.00;98823.44;107934;1307;22365;-46
2023/10/24 04:44:32;;;;;;;16.40;10.90;;;;;;;9.60;100.00;98815.30;107938;1288;23074;-47
2023/10/24 04:46:59;;;;;;;22.50;11.90;;;;;;;9.62;100.00;98812.57;107932;1307;23329;-45
2023/10/24 04:49:24;;;;;;;19.90;11.90;;;;;;;9.62;100.00;98810.63;107953;1307;23020;-46
2023/10/24 04:51:51;;;;;;;26.70;12.80;;;;;;;9.64;100.00;98809.98;107945;1288;22231;-45
2023/10/24 04:54:16;;;;;;;26.30;13.70;;;;;;;9.65;100.00;98813.79;107952;1288;22472;-46
2023/10/24 04:56:41;;;;;;;24.20;13.40;;;;;;;9.66;100.00;98811.45;107933;1288;22250;-46
2023/10/24 04:59:06;;;;;;;24.10;14.10;;;;;;;9.67;100.00;98806.81;107946;1288;23335;-46
2023/10/24 05:01:37;;;;;;;22.50;13.40;;;;;;;9.67;100.00;98809.98;107930;1295;23976;-47
2023/10/24 05:04:06;;;;;;;26.70;12.60;;;;;;;9.69;100.00;98809.89;107942;1288;22927;-48
2023/10/24 05:06:31;;;;;;;26.30;12.70;;;;;;;9.71;100.00;98802.93;107946;1291;22250;-48
2023/10/24 05:08:56;;;;;;;23.30;12.90;;;;;;;9.73;100.00;98798.27;107940;1293;22239;-46
2023/10/24 05:11:22;;;;;;;18.30;11.80;;;;;;;9.74;100.00;98790.48;107940;1288;22400;-50
2023/10/24 05:13:47;;;;;;;17.00;11.20;;;;;;;9.75;100.00;98784.11;107919;1292;22239;-49
2023/10/24 05:16:12;;;;;;;22.80;12.40;;;;;;;9.77;100.00;98785.05;107962;1304;22349;-47
2023/10/24 05:18:37;;;;;;;22.20;12.40;;;;;;;9.79;100.00;98785.09;107959;1288;22290;-46
2023/10/24 05:21:03;;;;;;;19.40;11.80;;;;;;;9.82;100.00;98783.71;107954;1289;22250;-48
2023/10/24 05:23:29;;;;;;;28.60;11.90;;;;;;;9.82;100.00;98781.40;107931;1288;22233;-49
2023/10/24 05:25:55;;;;;;;22.60;12.40;;;;;;;9.83;100.00;98787.14;107931;1298;23107;-50
2023/10/24 05:28:20;;;;;;;20.00;12.50;;;;;;;9.84;100.00;98796.77;107948;1288;22351;-49
2023/10/24 05:30:45;;;;;;;22.20;11.90;;;;;;;9.85;100.00;98795.27;107926;1287;23308;-47
2023/10/24 05:33:11;;;;;;;22.10;11.20;;;;;;;9.85;100.00;98788.79;107942;1291;22260;-50
2023/10/24 05:35:36;;;;;;;17.70;11.00;;;;;;;9.87;100.00;98793.02;107910;1289;22276;-46
2023/10/24 05:38:01;;;;;;;16.40;9.50;;;;;;;9.89;100.00;98793.27;107966;1288;22735;-50
2023/10/24 05:40:27;;;;;;;23.70;11.00;;;;;;;9.91;100.00;98792.10;107947;1288;22233;-47
2023/10/24 05:42:52;;;;;;;19.20;10.60;;;;;;;9.92;100.00;98792.88;107944;1288;22330;-49
2023/10/24 05:45:17;;;;;;;18.00;11.10;;;;;;;9.93;100.00;98786.69;107944;1288;23125;-50
2023/10/24 05:47:43;;;;;;;20.40;11.10;;;;;;;9.95;100.00;98792.20;107934;1291;22203;-48
2023/10/24 05:50:09;;;;;;;22.40;11.10;;;;;;;9.98;100.00;98792.19;107900;1306;22245;-47
2023/10/24 05:52:34;;;;;;;18.60;10.70;;;;;;;10.02;100.00;98793.90;107904;1307;22402;-49
2023/10/24 05:54:59;;;;;;;22.00;10.40;;;;;;;10.03;100.00;98795.04;107920;1285;22231;-48
2023/10/24 05:57:25;;;;;;;21.90;11.60;;;;;;;10.07;100.00;98793.75;107962;1299;22229;-47
2023/10/24 05:59:50;;;;;;;27.80;12.80;;;;;;;10.09;100.00;98797.35;107939;1299;22216;-49
2023/10/24 06:02:16;;;;;;;26.20;12.30;;;;;;;10.13;100.00;98803.20;107975;1296;22237;-49
2023/10/24 06:04:41;;;;;;;20.70;11.40;;;;;;;10.17;100.00;98808.58;107937;1306;22363;-51
2023/10/24 06:07:07;;;;;;;25.20;12.20;;;;;;;10.21;100.00;98812.90;107942;1289;22260;-46
2023/10/24 06:09:32;;;;;;;20.90;12.10;;;;;;;10.21;100.00;98815.85;107952;1288;22253;-49
2023/10/24 06:11:57;;;;;;;25.50;12.30;;;;;;;10.21;100.00;98820.94;107944;1288;22401;-50
2023/10/24 06:14:23;;;;;;;23.30;12.10;;;;;;;10.21;100.00;98825.65;107940;1295;23163;-50
2023/10/24 06:16:48;;;;;;;26.70;12.40;;;;;;;10.23;100.00;98823.98;107941;1288;22221;-48
2023/10/24 06:19:13;;;;;;;22.90;11.30;;;;;;;10.23;100.00;98825.91;107962;1296;22236;-50
2023/10/24 06:21:38;;;;;;;22.00;11.60;;;;;;;10.24;100.00;98823.04;107943;1295;22228;-47
2023/10/24 06:24:04;;;;;;;28.50;11.60;;;;;;;10.26;100.00;98819.88;107940;1299;22235;-49
2023/10/24 06:26:30;;;;;;;27.60;11.60;;;;;;;10.29;100.00;98816.39;107942;1299;22205;-48
2023/10/24 06:28:55;;;;;;;21.20;12.20;;;;;;;10.33;100.00;98811.82;107944;1307;22346;-47
2023/10/24 06:31:20;;;;;;;19.40;12.40;;;;;;;10.36;100.00;98806.73;107938;1299;22415;-50
2023/10/24 06:33:45;;;;;;;23.20;12.10;;;;;;;10.41;100.00;98802.39;107936;1296;22410;-49
2023/10/24 06:36:11;;;;;;;22.40;12.20;;;;;;;10.46;100.00;98794.88;107953;1296;22274;-50
2023/10/24 06:38:36;;;;;;;27.10;12.50;;;;;;;10.51;100.00;98788.23;107950;1286;22238;-47
2023/10/24 06:41:01;;;;;;;28.40;13.00;;;;;;;10.58;100.00;98785.53;107973;1286;22464;-51
2023/10/24 06:43:27;;;;;;;24.60;12.80;;;;;;;10.65;100.00;98781.45;108041;1296;22228;-50
2023/10/24 06:45:53;;;;;;;27.80;12.40;;;;;;;10.73;100.00;98788.10;108013;1298;22351;-48
2023/10/24 06:48:18;;;;;;;26.20;14.10;;;;;;;10.83;100.00;98787.12;108042;1286;22225;-47
2023/10/24 06:50:44;;;;;;;28.80;13.90;;;;;;;10.94;100.00;98786.56;108064;1288;22425;-47
2023/10/24 06:53:10;;;;;;;29.20;13.30;;;;;;;11.02;100.00;98785.20;108029;1307;22974;-47
